createdAt,value
2023-07-17T03:40:15.172Z,100.00
2023-07-17T03:43:18.468Z,100.00
2023-07-17T03:46:21.415Z,100.00
2023-07-17T03:49:24.111Z,100.00
2023-07-17T03:52:26.537Z,100.00
2023-07-17T03:55:29.310Z,100.00
2023-07-17T03:58:31.743Z,100.00
2023-07-17T04:01:35.488Z,100.00
2023-07-17T04:04:38.163Z,100.00
2023-07-17T04:07:40.483Z,100.00
2023-07-17T04:10:43.446Z,100.00
2023-07-17T04:13:45.893Z,100.00
2023-07-17T04:16:48.632Z,100.00
2023-07-17T04:19:51.184Z,100.00
2023-07-17T04:22:54.371Z,100.00
2023-07-17T04:25:57.212Z,100.00
2023-07-17T04:29:00.078Z,100.00
2023-07-17T04:32:02.608Z,100.00
2023-07-17T04:35:06.185Z,100.00
2023-07-17T04:38:08.879Z,100.00
2023-07-17T04:41:11.440Z,100.00
2023-07-17T04:44:14.557Z,100.00
2023-07-17T04:47:17.259Z,100.00
2023-07-17T04:50:19.927Z,100.00
2023-07-17T04:53:22.746Z,100.00
2023-07-17T04:56:25.573Z,100.00
2023-07-17T04:59:28.661Z,100.00
2023-07-17T05:02:31.279Z,100.00
2023-07-17T05:05:33.860Z,100.00
2023-07-17T05:08:36.404Z,100.00
2023-07-17T05:11:40.388Z,100.00
2023-07-17T05:14:42.868Z,100.00
2023-07-17T05:17:46.158Z,100.00
2023-07-17T05:20:51.175Z,100.00
2023-07-17T05:23:54.145Z,100.00
2023-07-17T05:26:56.855Z,100.00
2023-07-17T05:29:59.636Z,100.00
2023-07-17T05:33:02.994Z,100.00
2023-07-17T05:36:05.986Z,99.56
2023-07-17T05:39:08.845Z,99.19
2023-07-17T05:42:11.549Z,100.00
2023-07-17T05:45:14.188Z,98.25
2023-07-17T05:48:17.109Z,96.61
2023-07-17T05:51:21.912Z,98.14
2023-07-17T05:54:24.921Z,98.07
2023-07-17T05:57:27.434Z,94.92
2023-07-17T06:00:30.754Z,100.00
2023-07-17T06:03:33.825Z,96.38
2023-07-17T06:06:36.292Z,87.88
2023-07-17T06:09:38.960Z,88.25
2023-07-17T06:12:41.484Z,86.14
2023-07-17T06:15:44.572Z,84.99
2023-07-17T06:18:47.013Z,84.03
2023-07-17T06:21:49.844Z,79.32
2023-07-17T06:24:52.310Z,80.11
2023-07-17T06:27:54.972Z,78.56
2023-07-17T06:30:57.819Z,74.01
2023-07-17T06:34:00.527Z,77.79
2023-07-17T06:37:03.035Z,75.98
2023-07-17T06:40:07.033Z,74.53
2023-07-17T06:43:12.654Z,74.18
2023-07-17T06:46:18.373Z,72.71
2023-07-17T06:49:23.881Z,70.51
2023-07-17T06:52:27.789Z,69.25
2023-07-17T06:55:30.653Z,67.38
2023-07-17T06:58:33.429Z,71.28
2023-07-17T07:01:35.802Z,65.99
2023-07-17T07:04:38.547Z,65.53
2023-07-17T07:07:43.201Z,61.96
2023-07-17T07:10:45.997Z,60.86
2023-07-17T07:13:48.341Z,60.19
2023-07-17T07:16:51.004Z,66.43
2023-07-17T07:19:53.505Z,61.96
2023-07-17T07:22:56.302Z,60.71
2023-07-17T07:25:58.699Z,59.61
2023-07-17T07:29:01.644Z,57.96
2023-07-17T07:32:04.479Z,55.57
2023-07-17T07:35:07.796Z,55.94
2023-07-17T07:38:10.218Z,58.83
2023-07-17T07:41:13.031Z,53.99
2023-07-17T07:44:15.471Z,52.50
2023-07-17T07:47:18.263Z,57.60
2023-07-17T07:50:20.823Z,54.92
2023-07-17T07:53:23.531Z,54.47
2023-07-17T07:56:26.056Z,55.36
2023-07-17T07:59:29.071Z,54.25
2023-07-17T08:02:31.687Z,59.97
2023-07-17T08:05:34.458Z,55.41
2023-07-17T08:08:36.999Z,54.85
2023-07-17T08:11:40.879Z,55.21
2023-07-17T08:14:43.372Z,53.83
2023-07-17T08:17:46.510Z,53.71
2023-07-17T08:20:48.984Z,51.75
2023-07-17T08:23:51.953Z,50.41
2023-07-17T08:26:56.115Z,50.87
2023-07-17T08:29:58.964Z,49.40
2023-07-17T08:33:01.525Z,52.14
2023-07-17T08:36:04.836Z,52.40
2023-07-17T08:39:07.262Z,53.61
2023-07-17T08:42:11.786Z,52.33
2023-07-17T08:45:15.331Z,51.01
2023-07-17T08:48:18.234Z,49.64
2023-07-17T08:51:22.569Z,49.03
2023-07-17T08:57:32.417Z,48.02
2023-07-17T09:00:35.466Z,48.09
2023-07-17T09:03:38.068Z,50.03
2023-07-17T09:06:40.936Z,47.45
2023-07-17T09:09:43.600Z,48.05
2023-07-17T09:12:57.978Z,46.78
2023-07-17T09:16:14.192Z,45.96
2023-07-17T09:19:16.962Z,46.19
2023-07-17T09:22:19.991Z,45.22
2023-07-17T09:25:28.381Z,44.14
2023-07-17T09:28:31.324Z,45.95
2023-07-17T09:31:34.104Z,44.84
2023-07-17T09:34:36.619Z,43.26
2023-07-17T09:37:44.476Z,43.75
2023-07-17T09:40:48.104Z,47.77
2023-07-17T09:44:07.118Z,45.09
2023-07-17T09:47:10.240Z,44.70
2023-07-17T09:50:15.665Z,45.50
2023-07-17T09:53:20.374Z,45.12
2023-07-17T09:56:24.524Z,43.14
2023-07-17T09:59:33.061Z,43.37
2023-07-17T10:02:58.609Z,42.55
2023-07-17T10:06:02.238Z,41.55
2023-07-17T10:09:08.172Z,42.55
2023-07-17T10:12:11.312Z,41.25
2023-07-17T10:15:15.769Z,41.16
2023-07-17T10:18:23.435Z,41.13
2023-07-17T10:21:25.832Z,42.71
2023-07-17T10:24:28.489Z,43.05
2023-07-17T10:27:41.909Z,42.46
2023-07-17T10:30:49.705Z,43.65
2023-07-17T10:34:01.115Z,43.88
2023-07-17T10:37:04.703Z,43.15
2023-07-17T10:40:08.951Z,42.64
2023-07-17T10:43:19.878Z,41.29
2023-07-17T10:46:33.399Z,44.02
2023-07-17T10:49:36.128Z,43.82
2023-07-17T10:52:38.522Z,45.42
2023-07-17T10:55:41.937Z,41.04
2023-07-17T10:58:50.014Z,40.78
2023-07-17T11:02:01.726Z,40.21
2023-07-17T11:05:05.129Z,39.85
2023-07-17T11:08:09.058Z,43.67
2023-07-17T11:11:12.323Z,43.05
2023-07-17T11:14:15.154Z,43.04
2023-07-17T11:17:17.694Z,42.53
2023-07-17T11:20:20.416Z,41.69
2023-07-17T11:23:23.772Z,43.24
2023-07-17T11:26:33.541Z,43.56
2023-07-17T11:29:41.759Z,44.73
2023-07-17T11:32:44.790Z,44.73
2023-07-17T11:35:50.807Z,43.48
2023-07-17T11:38:58.126Z,43.95
2023-07-17T11:42:01.519Z,43.19
2023-07-17T11:45:06.394Z,43.04
2023-07-17T11:48:10.448Z,42.63
2023-07-17T11:51:13.303Z,41.03
2023-07-17T11:54:15.776Z,42.06
2023-07-17T11:57:18.601Z,41.70
2023-07-17T12:00:21.307Z,42.03
2023-07-17T12:03:25.362Z,42.17
2023-07-17T12:06:28.005Z,42.17
2023-07-17T12:09:30.830Z,40.48
2023-07-17T12:12:34.393Z,40.60
2023-07-17T12:15:38.574Z,41.52
2023-07-17T12:18:41.020Z,40.15
2023-07-17T12:21:44.179Z,40.51
2023-07-17T12:24:47.177Z,40.84
2023-07-17T12:27:50.228Z,41.19
2023-07-17T12:30:52.629Z,41.09
2023-07-17T12:33:55.752Z,41.44
2023-07-17T12:36:58.124Z,41.14
2023-07-17T12:40:01.786Z,40.03
2023-07-17T12:43:04.557Z,39.23
2023-07-17T12:46:07.244Z,38.68
2023-07-17T12:49:09.719Z,36.67
2023-07-17T12:52:12.441Z,37.35
2023-07-17T12:55:14.956Z,38.00
2023-07-17T12:58:19.460Z,37.85
2023-07-17T13:01:22.342Z,37.70
2023-07-17T13:04:25.394Z,38.73
2023-07-17T13:07:27.946Z,38.17
2023-07-17T13:10:31.195Z,38.54
2023-07-17T13:13:33.614Z,38.53
2023-07-17T13:16:36.532Z,38.94
2023-07-17T13:19:39.085Z,40.39
2023-07-17T13:22:41.953Z,40.75
2023-07-17T13:25:46.233Z,41.09
2023-07-17T13:28:49.000Z,41.67
2023-07-17T13:31:51.471Z,42.18
2023-07-17T13:34:54.408Z,42.67
2023-07-17T13:37:56.981Z,43.39
2023-07-17T13:41:02.014Z,44.26
2023-07-17T13:44:05.063Z,45.90
2023-07-17T13:47:08.486Z,46.65
2023-07-17T13:50:11.388Z,46.84
2023-07-17T13:53:15.657Z,46.80
2023-07-17T13:59:24.851Z,47.03
2023-07-17T14:02:27.279Z,48.00
2023-07-17T14:05:30.009Z,47.56
2023-07-17T14:08:32.345Z,48.16
2023-07-17T14:11:35.186Z,48.70
2023-07-17T14:14:37.523Z,49.18
2023-07-17T14:17:40.282Z,50.90
2023-07-17T14:20:42.868Z,52.16
2023-07-17T14:23:47.411Z,54.19
2023-07-17T14:26:50.290Z,55.24
2023-07-17T14:29:53.027Z,57.20
2023-07-17T14:32:55.495Z,59.64
2023-07-17T14:35:58.276Z,60.34
2023-07-17T14:39:00.746Z,60.58
2023-07-17T14:42:04.486Z,61.09
2023-07-17T14:45:07.352Z,62.41
2023-07-17T14:48:10.171Z,64.39
2023-07-17T14:51:13.581Z,64.44
2023-07-17T14:54:16.345Z,64.01
2023-07-17T14:57:18.812Z,65.01
2023-07-17T15:00:23.461Z,65.98
2023-07-17T15:03:26.677Z,68.96
2023-07-17T15:06:29.835Z,74.94
2023-07-17T15:09:32.479Z,70.92
2023-07-17T15:12:35.701Z,70.19
2023-07-17T15:15:38.371Z,72.35
2023-07-17T15:18:44.651Z,69.89
2023-07-17T15:21:47.228Z,68.04
2023-07-17T15:24:50.099Z,66.27
2023-07-17T15:27:52.564Z,64.77
2023-07-17T15:30:55.509Z,64.43
2023-07-17T15:33:59.536Z,64.55
2023-07-17T15:37:02.372Z,65.13
2023-07-17T15:40:05.528Z,63.44
2023-07-17T15:43:08.075Z,64.23
2023-07-17T15:46:10.337Z,64.44
2023-07-17T15:49:12.905Z,64.93
2023-07-17T15:52:15.474Z,65.39
2023-07-17T15:55:18.134Z,64.88
2023-07-17T15:58:20.476Z,64.49
2023-07-17T16:01:23.232Z,62.89
2023-07-17T16:04:26.070Z,64.55
2023-07-17T16:07:28.621Z,63.66
2023-07-17T16:10:31.484Z,63.78
2023-07-17T16:13:33.827Z,64.14
2023-07-17T16:16:36.555Z,63.33
2023-07-17T16:19:40.243Z,63.38
2023-07-17T16:22:42.770Z,62.43
2023-07-17T16:25:46.012Z,61.54
2023-07-17T16:28:48.547Z,60.67
2023-07-17T16:31:50.825Z,60.56
2023-07-17T16:34:53.407Z,60.68
2023-07-17T16:37:55.705Z,61.55
2023-07-17T16:40:58.283Z,61.48
2023-07-17T16:44:01.000Z,61.85
2023-07-17T16:47:04.043Z,62.24
2023-07-17T16:50:07.136Z,62.74
2023-07-17T16:53:10.155Z,61.63
2023-07-17T16:56:13.625Z,61.65
2023-07-17T16:59:22.023Z,60.59
2023-07-17T17:02:26.150Z,61.37
2023-07-17T17:05:28.727Z,61.79
2023-07-17T17:08:31.009Z,61.51
2023-07-17T17:11:33.730Z,62.62
2023-07-17T17:14:36.290Z,62.17
2023-07-17T17:17:39.173Z,60.41
2023-07-17T17:20:41.617Z,57.99
2023-07-17T17:23:44.375Z,56.51
2023-07-17T17:26:46.833Z,56.60
2023-07-17T17:29:49.416Z,57.50
2023-07-17T17:32:51.894Z,58.44
2023-07-17T17:35:56.125Z,59.36
2023-07-17T17:38:59.593Z,60.26
2023-07-17T17:42:03.743Z,60.54
2023-07-17T17:45:08.486Z,60.71
2023-07-17T17:48:11.811Z,60.52
2023-07-17T17:51:14.266Z,60.87
2023-07-17T17:54:16.941Z,60.99
2023-07-17T17:57:19.346Z,61.17
2023-07-17T18:00:22.220Z,61.40
2023-07-17T18:03:25.424Z,61.74
2023-07-17T18:06:28.406Z,61.41
2023-07-17T18:09:30.745Z,62.01
2023-07-17T18:12:33.247Z,62.49
2023-07-17T18:15:35.687Z,62.71
2023-07-17T18:18:38.489Z,62.75
2023-07-17T18:21:40.835Z,64.17
2023-07-17T18:24:43.766Z,67.64
2023-07-17T18:27:46.163Z,70.35
2023-07-17T18:30:48.886Z,71.17
2023-07-17T18:33:53.315Z,72.91
2023-07-17T18:36:57.295Z,75.42
2023-07-17T18:39:59.794Z,75.97
2023-07-17T18:43:02.704Z,76.91
2023-07-17T18:46:06.143Z,78.26
2023-07-17T18:49:09.695Z,79.17
2023-07-17T18:52:12.147Z,79.86
2023-07-17T18:55:14.797Z,80.07
2023-07-17T18:58:17.140Z,80.69
2023-07-17T19:01:20.104Z,81.59
2023-07-17T19:04:23.944Z,81.57
2023-07-17T19:07:28.591Z,81.42
2023-07-17T19:10:31.048Z,81.98
2023-07-17T19:13:33.665Z,82.99
2023-07-17T19:16:36.466Z,83.59
2023-07-17T19:19:48.708Z,84.19
2023-07-17T19:22:56.056Z,85.21
2023-07-17T19:26:02.605Z,85.88
2023-07-17T19:29:06.062Z,85.67
2023-07-17T19:32:09.275Z,86.26
2023-07-17T19:35:14.647Z,86.72
2023-07-17T19:38:17.479Z,88.16
2023-07-17T19:41:27.737Z,88.26
2023-07-17T19:44:30.844Z,87.70
2023-07-17T19:47:35.858Z,88.69
2023-07-17T19:50:39.031Z,88.61
2023-07-17T19:53:41.629Z,90.48
2023-07-17T19:56:44.164Z,89.71
2023-07-17T19:59:46.507Z,89.19
2023-07-17T20:02:49.295Z,88.90
2023-07-17T20:05:52.594Z,90.09
2023-07-17T20:08:58.268Z,90.83
2023-07-17T20:12:03.110Z,90.96
2023-07-17T20:15:08.993Z,91.27
2023-07-17T20:18:11.748Z,91.10
2023-07-17T20:21:14.227Z,90.76
2023-07-17T20:24:17.113Z,90.56
2023-07-17T20:27:19.408Z,91.53
2023-07-17T20:30:21.960Z,92.54
2023-07-17T20:33:25.398Z,92.81
2023-07-17T20:36:28.151Z,93.43
2023-07-17T20:39:30.589Z,94.45
2023-07-17T20:42:48.384Z,95.39
2023-07-17T20:45:54.137Z,95.91
2023-07-17T20:48:57.198Z,97.26
2023-07-17T20:51:59.570Z,98.64
2023-07-17T20:55:02.210Z,99.64
2023-07-17T20:58:04.797Z,100.00
2023-07-17T21:01:16.741Z,100.00
2023-07-17T21:04:19.284Z,100.00
2023-07-17T21:07:21.813Z,100.00
2023-07-17T21:10:24.043Z,100.00
2023-07-17T21:13:26.889Z,100.00
2023-07-17T21:16:29.140Z,100.00
2023-07-17T21:19:31.833Z,97.47
2023-07-17T21:22:34.235Z,99.34
2023-07-17T21:25:37.655Z,98.03
2023-07-17T21:28:58.685Z,98.83
2023-07-17T21:32:01.350Z,98.30
2023-07-17T21:35:04.844Z,97.91
2023-07-17T21:38:07.941Z,97.92
2023-07-17T21:41:10.247Z,99.31
2023-07-17T21:44:12.993Z,99.95
2023-07-17T21:47:15.371Z,100.00
2023-07-17T21:50:18.035Z,100.00
2023-07-17T21:53:20.460Z,100.00
2023-07-17T21:56:23.003Z,100.00
2023-07-17T21:59:25.281Z,100.00
2023-07-17T22:02:27.943Z,100.00
2023-07-17T22:05:30.685Z,100.00
2023-07-17T22:08:33.117Z,100.00
2023-07-17T22:11:35.806Z,100.00
2023-07-17T22:14:38.361Z,99.58
2023-07-17T22:17:42.859Z,97.51
2023-07-17T22:20:45.314Z,96.99
2023-07-17T22:23:48.116Z,98.63
2023-07-17T22:26:50.433Z,99.22
2023-07-17T22:29:54.701Z,100.00
2023-07-17T22:32:57.187Z,100.00
2023-07-17T22:35:59.826Z,100.00
2023-07-17T22:39:02.078Z,100.00
2023-07-17T22:42:05.179Z,100.00
2023-07-17T22:45:07.671Z,100.00
2023-07-17T22:48:10.425Z,100.00
2023-07-17T22:51:12.869Z,100.00
2023-07-17T22:54:15.526Z,99.38
2023-07-17T22:57:18.509Z,98.33
2023-07-17T23:00:21.416Z,98.82
2023-07-17T23:03:23.961Z,98.66
2023-07-17T23:06:26.832Z,98.52
2023-07-17T23:09:29.292Z,97.10
2023-07-17T23:12:32.642Z,98.27
2023-07-17T23:15:35.558Z,97.10
2023-07-17T23:18:38.314Z,97.31
2023-07-17T23:21:40.708Z,96.70
2023-07-17T23:24:43.765Z,96.96
2023-07-17T23:27:46.210Z,94.84
2023-07-17T23:30:48.695Z,96.16
2023-07-17T23:33:51.003Z,97.33
2023-07-17T23:36:53.711Z,98.46
2023-07-17T23:40:01.050Z,98.02
2023-07-17T23:43:03.893Z,99.16
2023-07-17T23:46:06.323Z,100.00
2023-07-17T23:49:09.920Z,100.00
2023-07-17T23:52:12.280Z,100.00
2023-07-17T23:55:16.698Z,100.00
2023-07-17T23:58:19.307Z,100.00
